sensor_id;sensor_type;location;lat;lon;timestamp;temperature;humidity
20366;DHT22;10341;49.894;8.822;2023-06-24T00:00:06;14.60;99.90
20366;DHT22;10341;49.894;8.822;2023-06-24T00:05:26;14.40;99.90
20366;DHT22;10341;49.894;8.822;2023-06-24T00:10:46;14.40;99.90
20366;DHT22;10341;49.894;8.822;2023-06-24T00:16:06;14.30;99.90
20366;DHT22;10341;49.894;8.822;2023-06-24T00:21:28;14.20;99.90
20366;DHT22;10341;49.894;8.822;2023-06-24T00:26:49;14.10;99.90
20366;DHT22;10341;49.894;8.822;2023-06-24T00:32:09;14.10;99.90
20366;DHT22;10341;49.894;8.822;2023-06-24T00:37:28;14.00;99.90
20366;DHT22;10341;49.894;8.822;2023-06-24T00:42:48;13.90;99.90
20366;DHT22;10341;49.894;8.822;2023-06-24T00:48:07;13.90;99.90
20366;DHT22;10341;49.894;8.822;2023-06-24T00:53:27;13.70;99.90
20366;DHT22;10341;49.894;8.822;2023-06-24T00:58:46;13.60;99.90
20366;DHT22;10341;49.894;8.822;2023-06-24T01:04:07;13.60;99.90
20366;DHT22;10341;49.894;8.822;2023-06-24T01:09:27;13.60;99.90
20366;DHT22;10341;49.894;8.822;2023-06-24T01:14:47;13.50;99.90
20366;DHT22;10341;49.894;8.822;2023-06-24T01:20:18;13.40;99.90
20366;DHT22;10341;49.894;8.822;2023-06-24T01:26:14;13.40;99.90
20366;DHT22;10341;49.894;8.822;2023-06-24T01:31:48;13.30;99.90
20366;DHT22;10341;49.894;8.822;2023-06-24T01:37:16;13.20;99.90
20366;DHT22;10341;49.894;8.822;2023-06-24T01:42:42;13.20;99.90
20366;DHT22;10341;49.894;8.822;2023-06-24T01:48:09;13.10;99.90
20366;DHT22;10341;49.894;8.822;2023-06-24T01:53:34;13.00;99.90
20366;DHT22;10341;49.894;8.822;2023-06-24T01:58:56;13.00;99.90
20366;DHT22;10341;49.894;8.822;2023-06-24T02:04:19;12.90;99.90
20366;DHT22;10341;49.894;8.822;2023-06-24T02:09:39;12.90;99.90
20366;DHT22;10341;49.894;8.822;2023-06-24T02:15:01;12.80;99.90
20366;DHT22;10341;49.894;8.822;2023-06-24T02:20:21;12.70;99.90
20366;DHT22;10341;49.894;8.822;2023-06-24T02:25:47;12.60;99.90
20366;DHT22;10341;49.894;8.822;2023-06-24T02:31:06;12.60;99.90
20366;DHT22;10341;49.894;8.822;2023-06-24T02:36:27;12.50;99.90
20366;DHT22;10341;49.894;8.822;2023-06-24T02:41:47;12.50;99.90
20366;DHT22;10341;49.894;8.822;2023-06-24T02:47:11;12.40;99.90
20366;DHT22;10341;49.894;8.822;2023-06-24T02:52:31;12.40;99.90
20366;DHT22;10341;49.894;8.822;2023-06-24T02:57:51;12.30;99.90
20366;DHT22;10341;49.894;8.822;2023-06-24T03:03:29;12.30;99.90
20366;DHT22;10341;49.894;8.822;2023-06-24T03:08:50;12.20;99.90
20366;DHT22;10341;49.894;8.822;2023-06-24T03:14:13;12.20;99.90
20366;DHT22;10341;49.894;8.822;2023-06-24T03:19:35;12.20;99.90
20366;DHT22;10341;49.894;8.822;2023-06-24T03:24:55;12.10;99.90
20366;DHT22;10341;49.894;8.822;2023-06-24T03:30:15;12.20;99.90
20366;DHT22;10341;49.894;8.822;2023-06-24T03:35:36;12.10;99.90
20366;DHT22;10341;49.894;8.822;2023-06-24T03:41:00;12.10;99.90
20366;DHT22;10341;49.894;8.822;2023-06-24T03:46:20;12.20;99.90
20366;DHT22;10341;49.894;8.822;2023-06-24T03:51:39;12.20;99.90
20366;DHT22;10341;49.894;8.822;2023-06-24T03:56:59;12.20;99.90
20366;DHT22;10341;49.894;8.822;2023-06-24T04:02:18;12.30;99.90
20366;DHT22;10341;49.894;8.822;2023-06-24T04:07:39;12.40;99.90
20366;DHT22;10341;49.894;8.822;2023-06-24T04:12:58;12.50;99.90
20366;DHT22;10341;49.894;8.822;2023-06-24T04:18:19;12.60;99.90
20366;DHT22;10341;49.894;8.822;2023-06-24T04:23:39;12.70;99.90
20366;DHT22;10341;49.894;8.822;2023-06-24T04:28:58;12.80;99.90
20366;DHT22;10341;49.894;8.822;2023-06-24T04:34:18;12.90;99.90
20366;DHT22;10341;49.894;8.822;2023-06-24T04:39:38;13.00;99.90
20366;DHT22;10341;49.894;8.822;2023-06-24T04:44:58;13.20;99.90
20366;DHT22;10341;49.894;8.822;2023-06-24T04:50:17;13.40;99.90
20366;DHT22;10341;49.894;8.822;2023-06-24T04:55:37;13.60;99.90
20366;DHT22;10341;49.894;8.822;2023-06-24T05:00:56;13.80;99.90
20366;DHT22;10341;49.894;8.822;2023-06-24T05:06:16;14.00;99.90
20366;DHT22;10341;49.894;8.822;2023-06-24T05:11:35;14.20;99.90
20366;DHT22;10341;49.894;8.822;2023-06-24T05:16:55;14.40;99.90
20366;DHT22;10341;49.894;8.822;2023-06-24T05:22:14;14.70;99.90
20366;DHT22;10341;49.894;8.822;2023-06-24T05:27:34;14.90;99.90
20366;DHT22;10341;49.894;8.822;2023-06-24T05:32:53;15.30;99.90
20366;DHT22;10341;49.894;8.822;2023-06-24T05:38:13;15.60;99.90
20366;DHT22;10341;49.894;8.822;2023-06-24T05:43:33;15.90;99.90
20366;DHT22;10341;49.894;8.822;2023-06-24T05:48:52;16.10;99.90
20366;DHT22;10341;49.894;8.822;2023-06-24T05:54:12;16.40;99.90
20366;DHT22;10341;49.894;8.822;2023-06-24T05:59:32;16.70;99.90
20366;DHT22;10341;49.894;8.822;2023-06-24T06:04:51;17.00;99.90
20366;DHT22;10341;49.894;8.822;2023-06-24T06:10:11;17.20;99.90
20366;DHT22;10341;49.894;8.822;2023-06-24T06:15:30;17.50;99.90
20366;DHT22;10341;49.894;8.822;2023-06-24T06:20:50;17.90;99.90
20366;DHT22;10341;49.894;8.822;2023-06-24T06:26:09;18.10;99.90
20366;DHT22;10341;49.894;8.822;2023-06-24T06:31:29;18.30;99.90
20366;DHT22;10341;49.894;8.822;2023-06-24T06:36:48;18.60;99.90
20366;DHT22;10341;49.894;8.822;2023-06-24T06:42:08;18.80;99.90
20366;DHT22;10341;49.894;8.822;2023-06-24T06:47:28;19.10;99.90
20366;DHT22;10341;49.894;8.822;2023-06-24T06:52:47;19.40;99.90
20366;DHT22;10341;49.894;8.822;2023-06-24T06:58:07;19.70;99.90
20366;DHT22;10341;49.894;8.822;2023-06-24T07:03:27;20.00;99.90
20366;DHT22;10341;49.894;8.822;2023-06-24T07:08:47;20.40;99.90
20366;DHT22;10341;49.894;8.822;2023-06-24T07:14:07;20.70;99.90
20366;DHT22;10341;49.894;8.822;2023-06-24T07:19:26;20.90;99.90
20366;DHT22;10341;49.894;8.822;2023-06-24T07:24:46;21.60;99.90
20366;DHT22;10341;49.894;8.822;2023-06-24T07:30:06;22.30;99.90
20366;DHT22;10341;49.894;8.822;2023-06-24T07:35:26;22.40;99.90
20366;DHT22;10341;49.894;8.822;2023-06-24T07:40:45;22.50;99.90
20366;DHT22;10341;49.894;8.822;2023-06-24T07:46:05;22.60;99.90
20366;DHT22;10341;49.894;8.822;2023-06-24T07:51:24;22.90;99.90
20366;DHT22;10341;49.894;8.822;2023-06-24T07:56:44;23.40;99.90
20366;DHT22;10341;49.894;8.822;2023-06-24T08:02:03;23.80;99.90
20366;DHT22;10341;49.894;8.822;2023-06-24T08:07:23;24.40;99.90
20366;DHT22;10341;49.894;8.822;2023-06-24T08:12:43;25.60;99.90
20366;DHT22;10341;49.894;8.822;2023-06-24T08:18:02;27.20;99.90
20366;DHT22;10341;49.894;8.822;2023-06-24T08:23:21;29.00;97.00
20366;DHT22;10341;49.894;8.822;2023-06-24T08:28:41;29.20;95.40
20366;DHT22;10341;49.894;8.822;2023-06-24T08:34:01;29.70;93.70
20366;DHT22;10341;49.894;8.822;2023-06-24T08:39:21;30.80;93.70
20366;DHT22;10341;49.894;8.822;2023-06-24T08:44:41;32.70;87.80
20366;DHT22;10341;49.894;8.822;2023-06-24T08:50:07;32.60;86.00
20366;DHT22;10341;49.894;8.822;2023-06-24T08:55:28;33.40;78.20
20366;DHT22;10341;49.894;8.822;2023-06-24T09:00:50;33.20;75.90
20366;DHT22;10341;49.894;8.822;2023-06-24T09:06:09;33.40;74.00
20366;DHT22;10341;49.894;8.822;2023-06-24T09:11:29;34.10;73.90
20366;DHT22;10341;49.894;8.822;2023-06-24T09:16:56;34.00;73.30
20366;DHT22;10341;49.894;8.822;2023-06-24T09:22:16;33.10;73.50
20366;DHT22;10341;49.894;8.822;2023-06-24T09:27:36;34.00;74.00
20366;DHT22;10341;49.894;8.822;2023-06-24T09:32:56;34.80;72.10
20366;DHT22;10341;49.894;8.822;2023-06-24T09:38:32;37.20;66.60
20366;DHT22;10341;49.894;8.822;2023-06-24T09:43:52;37.50;67.30
20366;DHT22;10341;49.894;8.822;2023-06-24T09:49:16;39.10;61.50
20366;DHT22;10341;49.894;8.822;2023-06-24T09:54:37;40.30;60.00
20366;DHT22;10341;49.894;8.822;2023-06-24T09:59:57;41.10;56.40
20366;DHT22;10341;49.894;8.822;2023-06-24T10:05:17;38.00;58.40
20366;DHT22;10341;49.894;8.822;2023-06-24T10:10:36;39.10;58.70
20366;DHT22;10341;49.894;8.822;2023-06-24T10:15:57;38.00;56.00
20366;DHT22;10341;49.894;8.822;2023-06-24T10:21:17;36.60;60.00
20366;DHT22;10341;49.894;8.822;2023-06-24T10:26:36;38.30;58.60
20366;DHT22;10341;49.894;8.822;2023-06-24T10:31:56;39.60;54.50
20366;DHT22;10341;49.894;8.822;2023-06-24T10:37:39;40.70;55.30
20366;DHT22;10341;49.894;8.822;2023-06-24T10:43:00;40.70;54.40
20366;DHT22;10341;49.894;8.822;2023-06-24T10:48:19;41.40;54.60
20366;DHT22;10341;49.894;8.822;2023-06-24T10:53:39;41.60;52.40
20366;DHT22;10341;49.894;8.822;2023-06-24T10:58:59;40.70;53.70
20366;DHT22;10341;49.894;8.822;2023-06-24T11:04:18;41.50;53.00
20366;DHT22;10341;49.894;8.822;2023-06-24T11:09:41;40.40;54.30
20366;DHT22;10341;49.894;8.822;2023-06-24T11:15:11;40.90;51.60
20366;DHT22;10341;49.894;8.822;2023-06-24T11:20:31;39.80;52.80
20366;DHT22;10341;49.894;8.822;2023-06-24T11:25:50;39.90;51.30
20366;DHT22;10341;49.894;8.822;2023-06-24T11:31:10;40.30;49.80
20366;DHT22;10341;49.894;8.822;2023-06-24T11:36:29;40.20;50.80
20366;DHT22;10341;49.894;8.822;2023-06-24T11:41:50;40.50;51.10
20366;DHT22;10341;49.894;8.822;2023-06-24T11:47:10;40.80;50.30
20366;DHT22;10341;49.894;8.822;2023-06-24T11:58:02;37.80;52.00
20366;DHT22;10341;49.894;8.822;2023-06-24T12:03:24;35.80;54.60
20366;DHT22;10341;49.894;8.822;2023-06-24T12:08:43;33.80;55.90
20366;DHT22;10341;49.894;8.822;2023-06-24T12:14:03;32.60;59.00
20366;DHT22;10341;49.894;8.822;2023-06-24T12:19:23;33.10;58.90
20366;DHT22;10341;49.894;8.822;2023-06-24T12:24:42;34.00;56.80
20366;DHT22;10341;49.894;8.822;2023-06-24T12:30:02;33.20;57.40
20366;DHT22;10341;49.894;8.822;2023-06-24T12:35:22;33.80;58.40
20366;DHT22;10341;49.894;8.822;2023-06-24T12:40:44;34.30;57.60
20366;DHT22;10341;49.894;8.822;2023-06-24T12:46:04;33.50;57.00
20366;DHT22;10341;49.894;8.822;2023-06-24T12:51:24;34.30;59.10
20366;DHT22;10341;49.894;8.822;2023-06-24T12:56:43;34.10;56.90
20366;DHT22;10341;49.894;8.822;2023-06-24T13:02:03;32.40;58.10
20366;DHT22;10341;49.894;8.822;2023-06-24T13:07:23;32.80;59.90
20366;DHT22;10341;49.894;8.822;2023-06-24T13:12:43;33.50;57.30
20366;DHT22;10341;49.894;8.822;2023-06-24T13:18:03;33.80;57.60
20366;DHT22;10341;49.894;8.822;2023-06-24T13:23:23;34.10;58.20
20366;DHT22;10341;49.894;8.822;2023-06-24T13:28:42;34.70;57.30
20366;DHT22;10341;49.894;8.822;2023-06-24T13:34:02;35.00;57.00
20366;DHT22;10341;49.894;8.822;2023-06-24T13:39:23;35.30;55.90
20366;DHT22;10341;49.894;8.822;2023-06-24T13:44:42;34.40;56.50
20366;DHT22;10341;49.894;8.822;2023-06-24T13:50:04;34.30;56.50
20366;DHT22;10341;49.894;8.822;2023-06-24T13:55:23;34.20;57.70
20366;DHT22;10341;49.894;8.822;2023-06-24T14:00:43;34.70;55.90
20366;DHT22;10341;49.894;8.822;2023-06-24T14:06:03;34.60;57.30
20366;DHT22;10341;49.894;8.822;2023-06-24T14:11:22;34.60;55.40
20366;DHT22;10341;49.894;8.822;2023-06-24T14:16:42;33.30;56.80
20366;DHT22;10341;49.894;8.822;2023-06-24T14:22:02;32.60;57.00
20366;DHT22;10341;49.894;8.822;2023-06-24T14:27:22;32.00;57.00
20366;DHT22;10341;49.894;8.822;2023-06-24T14:32:41;31.50;57.60
20366;DHT22;10341;49.894;8.822;2023-06-24T14:38:02;31.50;58.00
20366;DHT22;10341;49.894;8.822;2023-06-24T14:43:22;32.00;56.20
20366;DHT22;10341;49.894;8.822;2023-06-24T14:48:41;31.80;56.70
20366;DHT22;10341;49.894;8.822;2023-06-24T14:54:00;32.00;58.00
20366;DHT22;10341;49.894;8.822;2023-06-24T14:59:20;32.50;59.80
20366;DHT22;10341;49.894;8.822;2023-06-24T15:04:39;33.40;57.70
20366;DHT22;10341;49.894;8.822;2023-06-24T15:10:00;33.30;57.60
20366;DHT22;10341;49.894;8.822;2023-06-24T15:15:20;32.50;58.10
20366;DHT22;10341;49.894;8.822;2023-06-24T15:20:39;32.10;59.10
20366;DHT22;10341;49.894;8.822;2023-06-24T15:25:59;32.50;58.90
20366;DHT22;10341;49.894;8.822;2023-06-24T15:31:19;32.80;57.80
20366;DHT22;10341;49.894;8.822;2023-06-24T15:36:38;32.70;56.60
20366;DHT22;10341;49.894;8.822;2023-06-24T15:41:59;32.90;56.90
20366;DHT22;10341;49.894;8.822;2023-06-24T15:47:18;32.90;57.80
20366;DHT22;10341;49.894;8.822;2023-06-24T15:52:38;33.00;57.20
20366;DHT22;10341;49.894;8.822;2023-06-24T15:57:58;33.10;57.10
20366;DHT22;10341;49.894;8.822;2023-06-24T16:03:17;32.70;57.80
20366;DHT22;10341;49.894;8.822;2023-06-24T16:08:37;32.20;58.80
20366;DHT22;10341;49.894;8.822;2023-06-24T16:13:56;32.40;57.40
20366;DHT22;10341;49.894;8.822;2023-06-24T16:19:16;31.80;58.50
20366;DHT22;10341;49.894;8.822;2023-06-24T16:24:35;32.10;59.10
20366;DHT22;10341;49.894;8.822;2023-06-24T16:29:55;32.30;57.50
20366;DHT22;10341;49.894;8.822;2023-06-24T16:35:15;32.30;59.10
20366;DHT22;10341;49.894;8.822;2023-06-24T16:40:34;32.50;58.70
20366;DHT22;10341;49.894;8.822;2023-06-24T16:45:55;32.40;58.40
20366;DHT22;10341;49.894;8.822;2023-06-24T16:51:14;32.00;59.30
20366;DHT22;10341;49.894;8.822;2023-06-24T16:56:34;31.70;58.50
20366;DHT22;10341;49.894;8.822;2023-06-24T17:01:53;31.80;59.30
20366;DHT22;10341;49.894;8.822;2023-06-24T17:07:13;31.70;60.00
20366;DHT22;10341;49.894;8.822;2023-06-24T17:12:32;30.90;60.70
20366;DHT22;10341;49.894;8.822;2023-06-24T17:17:52;30.60;62.20
20366;DHT22;10341;49.894;8.822;2023-06-24T17:23:12;30.30;62.70
20366;DHT22;10341;49.894;8.822;2023-06-24T17:28:31;30.10;62.80
20366;DHT22;10341;49.894;8.822;2023-06-24T17:33:51;30.00;64.00
20366;DHT22;10341;49.894;8.822;2023-06-24T17:39:10;29.90;63.80
20366;DHT22;10341;49.894;8.822;2023-06-24T17:44:30;29.60;64.00
20366;DHT22;10341;49.894;8.822;2023-06-24T17:49:49;29.20;65.50
20366;DHT22;10341;49.894;8.822;2023-06-24T17:55:09;29.00;65.60
20366;DHT22;10341;49.894;8.822;2023-06-24T18:00:28;28.70;66.70
20366;DHT22;10341;49.894;8.822;2023-06-24T18:05:49;28.40;67.20
20366;DHT22;10341;49.894;8.822;2023-06-24T18:11:09;28.10;67.10
20366;DHT22;10341;49.894;8.822;2023-06-24T18:16:28;27.90;69.50
20366;DHT22;10341;49.894;8.822;2023-06-24T18:21:48;27.70;70.30
20366;DHT22;10341;49.894;8.822;2023-06-24T18:27:09;27.40;70.90
20366;DHT22;10341;49.894;8.822;2023-06-24T18:32:29;27.10;70.80
20366;DHT22;10341;49.894;8.822;2023-06-24T18:37:49;26.90;71.40
20366;DHT22;10341;49.894;8.822;2023-06-24T18:43:08;26.60;72.70
20366;DHT22;10341;49.894;8.822;2023-06-24T18:48:30;26.40;72.80
20366;DHT22;10341;49.894;8.822;2023-06-24T18:53:50;26.20;78.30
20366;DHT22;10341;49.894;8.822;2023-06-24T18:59:10;25.80;85.50
20366;DHT22;10341;49.894;8.822;2023-06-24T19:04:29;25.50;91.70
20366;DHT22;10341;49.894;8.822;2023-06-24T19:09:49;25.10;94.70
20366;DHT22;10341;49.894;8.822;2023-06-24T19:15:09;24.70;96.50
20366;DHT22;10341;49.894;8.822;2023-06-24T19:20:28;24.30;98.50
20366;DHT22;10341;49.894;8.822;2023-06-24T19:25:48;23.90;99.90
20366;DHT22;10341;49.894;8.822;2023-06-24T19:31:07;23.60;99.90
20366;DHT22;10341;49.894;8.822;2023-06-24T19:36:27;23.30;99.90
20366;DHT22;10341;49.894;8.822;2023-06-24T19:41:47;23.00;99.90
20366;DHT22;10341;49.894;8.822;2023-06-24T19:47:06;22.60;99.90
20366;DHT22;10341;49.894;8.822;2023-06-24T19:52:26;22.40;99.90
20366;DHT22;10341;49.894;8.822;2023-06-24T19:57:45;22.10;99.90
20366;DHT22;10341;49.894;8.822;2023-06-24T20:03:05;21.90;99.90
20366;DHT22;10341;49.894;8.822;2023-06-24T20:08:25;21.70;99.90
20366;DHT22;10341;49.894;8.822;2023-06-24T20:13:44;21.50;99.90
20366;DHT22;10341;49.894;8.822;2023-06-24T20:19:07;21.30;99.90
20366;DHT22;10341;49.894;8.822;2023-06-24T20:24:27;21.10;99.90
20366;DHT22;10341;49.894;8.822;2023-06-24T20:29:48;20.90;99.90
20366;DHT22;10341;49.894;8.822;2023-06-24T20:35:07;20.70;99.90
20366;DHT22;10341;49.894;8.822;2023-06-24T20:40:27;20.50;99.90
20366;DHT22;10341;49.894;8.822;2023-06-24T20:45:46;20.30;99.90
20366;DHT22;10341;49.894;8.822;2023-06-24T20:51:06;20.10;99.90
20366;DHT22;10341;49.894;8.822;2023-06-24T20:56:26;20.00;99.90
20366;DHT22;10341;49.894;8.822;2023-06-24T21:01:45;19.90;99.90
20366;DHT22;10341;49.894;8.822;2023-06-24T21:07:05;19.80;99.90
20366;DHT22;10341;49.894;8.822;2023-06-24T21:12:24;19.60;99.90
20366;DHT22;10341;49.894;8.822;2023-06-24T21:17:44;19.50;99.90
20366;DHT22;10341;49.894;8.822;2023-06-24T21:23:04;19.30;99.90
20366;DHT22;10341;49.894;8.822;2023-06-24T21:28:23;19.10;99.90
20366;DHT22;10341;49.894;8.822;2023-06-24T21:33:43;19.00;99.90
20366;DHT22;10341;49.894;8.822;2023-06-24T21:39:02;18.80;99.90
20366;DHT22;10341;49.894;8.822;2023-06-24T21:44:22;18.70;99.90
20366;DHT22;10341;49.894;8.822;2023-06-24T21:49:42;18.50;99.90
20366;DHT22;10341;49.894;8.822;2023-06-24T21:55:01;18.40;99.90
20366;DHT22;10341;49.894;8.822;2023-06-24T22:00:21;18.30;99.90
20366;DHT22;10341;49.894;8.822;2023-06-24T22:05:40;18.20;99.90
20366;DHT22;10341;49.894;8.822;2023-06-24T22:11:00;18.10;99.90
20366;DHT22;10341;49.894;8.822;2023-06-24T22:16:20;18.00;99.90
20366;DHT22;10341;49.894;8.822;2023-06-24T22:21:39;17.90;99.90
20366;DHT22;10341;49.894;8.822;2023-06-24T22:26:59;17.70;99.90
20366;DHT22;10341;49.894;8.822;2023-06-24T22:32:18;17.60;99.90
20366;DHT22;10341;49.894;8.822;2023-06-24T22:37:38;17.50;99.90
20366;DHT22;10341;49.894;8.822;2023-06-24T22:42:58;17.40;99.90
20366;DHT22;10341;49.894;8.822;2023-06-24T22:48:17;17.30;99.90
20366;DHT22;10341;49.894;8.822;2023-06-24T22:53:36;17.10;99.90
20366;DHT22;10341;49.894;8.822;2023-06-24T22:58:56;17.00;99.90
20366;DHT22;10341;49.894;8.822;2023-06-24T23:04:16;16.90;99.90
20366;DHT22;10341;49.894;8.822;2023-06-24T23:09:36;16.80;99.90
20366;DHT22;10341;49.894;8.822;2023-06-24T23:14:56;16.70;99.90
20366;DHT22;10341;49.894;8.822;2023-06-24T23:20:15;16.70;99.90
20366;DHT22;10341;49.894;8.822;2023-06-24T23:25:35;16.60;99.90
20366;DHT22;10341;49.894;8.822;2023-06-24T23:30:59;16.40;99.90
20366;DHT22;10341;49.894;8.822;2023-06-24T23:36:20;16.30;99.90
20366;DHT22;10341;49.894;8.822;2023-06-24T23:41:40;16.20;99.90
20366;DHT22;10341;49.894;8.822;2023-06-24T23:46:59;16.20;99.90
20366;DHT22;10341;49.894;8.822;2023-06-24T23:52:19;16.10;99.90
20366;DHT22;10341;49.894;8.822;2023-06-24T23:57:38;16.00;99.90
